BOX618 KSEA-EDDF
Flight info
| Callsign | BOX618 |
|---|---|
| Flight time | N/A |
| Altitude | 31000 |
| Route | ALPSE DCT YDC/N0496F300 DCT PARQE/N0487F320 DCT YQU/N0490F310 DCT 59N115W 62N110W 65N100W/N0486F330 67N090W 6830N08000W 6930N07000W/M084F330 DCT ADSAM DCT 70N060W 70N050W 6930N04000W 6830N03000W 6630N02000W/M084F350 64N010W DCT GUNPA/N0481F350 DCT ATNAK DCT OMIMA DCT KUBAT/N0478F360 DCT EEL DCT SOGPO/N0481F350 DCT DIXAT DIXAT1D |
| Aircraft | B77L/H-SDE1E2E3FGHIJ2J3J4J5M1RWXY/LB1D1 |
Departure
| Time | 2026-05-01 11:47 |
|---|---|
| Airport | Seattle–Tacoma International Airport (KSEA) |
Arrival
| Time | N/A |
|---|---|
| Airport | Frankfurt Main Airport (EDDF) |
| Time | Latitude | Longitude | Altitude | Speed | Heading |
|---|---|---|---|---|---|
| 2026-05-01 11:04 | 47.45211 | -122.30367 | 388 ft | 0 kts | 90° |
| 2026-05-01 11:34 | 47.45210 | -122.30372 | 388 ft | 3 kts | 97° |
| 2026-05-01 11:34 | 47.45206 | -122.30370 | 388 ft | 4 kts | 141° |
| 2026-05-01 11:34 | 47.45220 | -122.30392 | 388 ft | 3 kts | 118° |
| 2026-05-01 11:35 | 47.45227 | -122.30409 | 388 ft | 4 kts | 64° |
| 2026-05-01 11:35 | 47.45214 | -122.30429 | 388 ft | 4 kts | 47° |
| 2026-05-01 11:35 | 47.45201 | -122.30458 | 388 ft | 4 kts | 76° |
| 2026-05-01 11:35 | 47.45198 | -122.30496 | 388 ft | 4 kts | 90° |
| 2026-05-01 11:36 | 47.45198 | -122.30516 | 388 ft | 0 kts | 83° |
| 2026-05-01 11:40 | 47.45185 | -122.30476 | 388 ft | 9 kts | 141° |
| 2026-05-01 11:41 | 47.45130 | -122.30513 | 388 ft | 10 kts | 238° |
| 2026-05-01 11:41 | 47.45106 | -122.30604 | 388 ft | 10 kts | 236° |
| 2026-05-01 11:41 | 47.45041 | -122.30630 | 388 ft | 10 kts | 180° |
| 2026-05-01 11:41 | 47.44972 | -122.30628 | 388 ft | 10 kts | 179° |
| 2026-05-01 11:42 | 47.44895 | -122.30627 | 388 ft | 12 kts | 179° |
| 2026-05-01 11:42 | 47.44804 | -122.30627 | 388 ft | 14 kts | 180° |
| 2026-05-01 11:42 | 47.44701 | -122.30631 | 388 ft | 16 kts | 182° |
| 2026-05-01 11:42 | 47.44586 | -122.30634 | 388 ft | 17 kts | 178° |
| 2026-05-01 11:43 | 47.44458 | -122.30630 | 388 ft | 19 kts | 180° |
| 2026-05-01 11:43 | 47.44328 | -122.30633 | 388 ft | 19 kts | 180° |
| 2026-05-01 11:43 | 47.44198 | -122.30632 | 388 ft | 19 kts | 180° |
| 2026-05-01 11:44 | 47.43938 | -122.30637 | 388 ft | 19 kts | 179° |
| 2026-05-01 11:44 | 47.43809 | -122.30636 | 388 ft | 19 kts | 181° |
| 2026-05-01 11:44 | 47.43679 | -122.30637 | 388 ft | 19 kts | 175° |
| 2026-05-01 11:44 | 47.43597 | -122.30593 | 388 ft | 19 kts | 150° |
| 2026-05-01 11:45 | 47.43472 | -122.30558 | 388 ft | 19 kts | 181° |
| 2026-05-01 11:45 | 47.43344 | -122.30559 | 388 ft | 19 kts | 180° |
| 2026-05-01 11:45 | 47.43217 | -122.30589 | 388 ft | 19 kts | 210° |
| 2026-05-01 11:45 | 47.43170 | -122.30731 | 388 ft | 14 kts | 265° |
| 2026-05-01 11:46 | 47.43198 | -122.30803 | 388 ft | 8 kts | 341° |
| 2026-05-01 11:46 | 47.43225 | -122.30806 | 388 ft | 0 kts | 0° |
| 2026-05-01 11:46 | 47.43357 | -122.30805 | 388 ft | 47 kts | 0° |
| 2026-05-01 11:47 | 47.43921 | -122.30801 | 388 ft | 112 kts | 0° |
| 2026-05-01 11:47 | 47.44896 | -122.30792 | 388 ft | 166 kts | 0° |
| 2026-05-01 11:47 | 47.46161 | -122.30779 | 581 ft | 186 kts | 0° |
| 2026-05-01 11:47 | 47.47449 | -122.30816 | 1114 ft | 189 kts | 357° |
| 2026-05-01 11:48 | 47.48789 | -122.30927 | 1561 ft | 196 kts | 357° |
| 2026-05-01 11:48 | 47.50152 | -122.31053 | 2071 ft | 198 kts | 357° |
| 2026-05-01 11:48 | 47.51603 | -122.31194 | 2152 ft | 221 kts | 356° |
| 2026-05-01 11:48 | 47.53217 | -122.31352 | 2281 ft | 243 kts | 356° |
| 2026-05-01 11:49 | 47.54956 | -122.31519 | 2649 ft | 256 kts | 356° |
| 2026-05-01 11:49 | 47.56758 | -122.31648 | 3171 ft | 261 kts | 4° |
| 2026-05-01 11:49 | 47.58566 | -122.31189 | 3717 ft | 266 kts | 14° |
| 2026-05-01 11:49 | 47.60342 | -122.30466 | 4354 ft | 269 kts | 17° |
| 2026-05-01 11:50 | 47.62171 | -122.29683 | 5020 ft | 272 kts | 16° |
| 2026-05-01 11:50 | 47.63981 | -122.28919 | 5633 ft | 276 kts | 16° |
| 2026-05-01 11:50 | 47.65840 | -122.28151 | 6239 ft | 279 kts | 15° |
| 2026-05-01 11:50 | 47.67731 | -122.27384 | 6843 ft | 283 kts | 15° |
| 2026-05-01 11:51 | 47.69631 | -122.26626 | 7452 ft | 285 kts | 15° |
| 2026-05-01 11:51 | 47.71559 | -122.25866 | 8045 ft | 287 kts | 14° |
| 2026-05-01 11:51 | 47.73507 | -122.25105 | 8653 ft | 290 kts | 14° |
| 2026-05-01 11:51 | 47.75475 | -122.24339 | 9229 ft | 294 kts | 14° |
| 2026-05-01 11:52 | 47.77459 | -122.23569 | 9829 ft | 296 kts | 14° |
| 2026-05-01 11:52 | 47.79466 | -122.22792 | 10321 ft | 302 kts | 14° |
| 2026-05-01 11:52 | 47.81567 | -122.21979 | 10485 ft | 322 kts | 14° |
| 2026-05-01 11:52 | 47.83798 | -122.21116 | 10650 ft | 341 kts | 14° |
| 2026-05-01 11:53 | 47.86164 | -122.20201 | 10806 ft | 361 kts | 14° |
| 2026-05-01 11:53 | 47.88653 | -122.19237 | 11057 ft | 377 kts | 14° |
| 2026-05-01 11:53 | 47.91195 | -122.18251 | 11536 ft | 386 kts | 14° |
| 2026-05-01 11:53 | 47.93821 | -122.17231 | 12147 ft | 392 kts | 14° |
| 2026-05-01 11:54 | 47.96470 | -122.16200 | 12859 ft | 396 kts | 14° |
| 2026-05-01 11:54 | 47.99153 | -122.15156 | 13565 ft | 400 kts | 13° |
| 2026-05-01 11:54 | 48.01864 | -122.14100 | 14198 ft | 405 kts | 13° |
| 2026-05-01 11:54 | 48.04605 | -122.13031 | 14803 ft | 409 kts | 13° |
| 2026-05-01 11:55 | 48.07378 | -122.11949 | 15418 ft | 413 kts | 13° |
| 2026-05-01 11:55 | 48.10170 | -122.10858 | 16022 ft | 417 kts | 13° |
| 2026-05-01 11:55 | 48.12987 | -122.09747 | 16608 ft | 420 kts | 15° |
| 2026-05-01 11:55 | 48.15748 | -122.08199 | 17111 ft | 427 kts | 25° |
| 2026-05-01 11:56 | 48.18333 | -122.05956 | 17682 ft | 432 kts | 34° |
| 2026-05-01 11:56 | 48.20691 | -122.03131 | 18267 ft | 435 kts | 41° |
| 2026-05-01 11:56 | 48.22949 | -122.00044 | 18756 ft | 440 kts | 43° |
| 2026-05-01 11:56 | 48.25194 | -121.96917 | 19288 ft | 442 kts | 43° |
| 2026-05-01 11:57 | 48.27454 | -121.93760 | 19831 ft | 445 kts | 43° |
| 2026-05-01 11:57 | 48.29732 | -121.90589 | 20367 ft | 447 kts | 42° |
| 2026-05-01 11:57 | 48.31995 | -121.87455 | 20872 ft | 451 kts | 42° |
| 2026-05-01 11:57 | 48.34313 | -121.84256 | 21382 ft | 454 kts | 42° |
| 2026-05-01 11:58 | 48.36654 | -121.81034 | 21856 ft | 457 kts | 42° |
| 2026-05-01 11:58 | 48.39013 | -121.77788 | 22364 ft | 460 kts | 42° |
| 2026-05-01 11:58 | 48.43768 | -121.71241 | 23350 ft | 466 kts | 42° |
| 2026-05-01 11:59 | 48.46170 | -121.67926 | 23812 ft | 469 kts | 41° |
| 2026-05-01 11:59 | 48.48579 | -121.64598 | 24216 ft | 472 kts | 42° |
| 2026-05-01 11:59 | 48.51000 | -121.61247 | 24631 ft | 474 kts | 41° |
| 2026-05-01 12:00 | 48.55885 | -121.54471 | 25454 ft | 479 kts | 41° |
| 2026-05-01 12:00 | 48.58316 | -121.51093 | 25834 ft | 482 kts | 41° |
| 2026-05-01 12:00 | 48.63304 | -121.44146 | 26595 ft | 487 kts | 41° |
| 2026-05-01 12:01 | 48.65775 | -121.40697 | 26959 ft | 490 kts | 41° |
| 2026-05-01 12:01 | 48.68279 | -121.37197 | 27340 ft | 492 kts | 41° |
| 2026-05-01 12:01 | 48.70800 | -121.33669 | 27729 ft | 495 kts | 41° |
| 2026-05-01 12:01 | 48.73330 | -121.30121 | 28074 ft | 497 kts | 41° |
| 2026-05-01 12:02 | 48.75885 | -121.26535 | 28427 ft | 500 kts | 41° |
| 2026-05-01 12:02 | 48.78439 | -121.22946 | 28755 ft | 503 kts | 41° |
| 2026-05-01 12:02 | 48.81006 | -121.19332 | 29087 ft | 505 kts | 41° |
| 2026-05-01 12:02 | 48.83601 | -121.15672 | 29395 ft | 508 kts | 41° |
| 2026-05-01 12:03 | 48.86194 | -121.12012 | 29681 ft | 510 kts | 41° |
| 2026-05-01 12:03 | 48.88793 | -121.08337 | 29982 ft | 512 kts | 41° |
| 2026-05-01 12:03 | 48.91402 | -121.04642 | 30272 ft | 513 kts | 41° |
| 2026-05-01 12:03 | 48.94015 | -121.00935 | 30619 ft | 512 kts | 41° |
| 2026-05-01 12:04 | 48.96610 | -120.97248 | 31011 ft | 510 kts | 41° |
| 2026-05-01 12:04 | 48.99169 | -120.93608 | 31121 ft | 512 kts | 41° |
| 2026-05-01 12:04 | 49.01770 | -120.89901 | 31102 ft | 511 kts | 41° |
| 2026-05-01 12:05 | 49.06943 | -120.82514 | 31096 ft | 509 kts | 41° |
| 2026-05-01 12:05 | 49.14690 | -120.71411 | 31106 ft | 509 kts | 42° |
| 2026-05-01 12:06 | 49.19853 | -120.63983 | 31110 ft | 509 kts | 42° |
| 2026-05-01 12:06 | 49.25008 | -120.56543 | 31103 ft | 509 kts | 42° |
| 2026-05-01 12:07 | 49.30123 | -120.49139 | 31117 ft | 509 kts | 42° |
| 2026-05-01 12:07 | 49.35337 | -120.41784 | 31116 ft | 506 kts | 35° |
| 2026-05-01 12:08 | 49.38307 | -120.38957 | 31130 ft | 503 kts | 23° |
| 2026-05-01 12:08 | 49.41553 | -120.36965 | 31120 ft | 500 kts | 14° |
| 2026-05-01 12:08 | 49.48354 | -120.35242 | 31138 ft | 495 kts | 4° |
| 2026-05-01 12:09 | 49.55230 | -120.34109 | 31127 ft | 498 kts | 4° |
| 2026-05-01 12:09 | 49.62135 | -120.32906 | 31128 ft | 500 kts | 4° |
| 2026-05-01 12:10 | 49.72484 | -120.30978 | 31126 ft | 502 kts | 4° |
| 2026-05-01 12:11 | 49.82887 | -120.29001 | 31113 ft | 502 kts | 4° |
| 2026-05-01 12:11 | 49.89819 | -120.27683 | 31107 ft | 501 kts | 4° |
| 2026-05-01 12:12 | 49.96726 | -120.26368 | 31113 ft | 500 kts | 4° |
| 2026-05-01 12:12 | 50.03636 | -120.25050 | 31114 ft | 499 kts | 4° |
| 2026-05-01 12:13 | 50.10525 | -120.23732 | 31112 ft | 499 kts | 4° |
| 2026-05-01 12:13 | 50.17420 | -120.22409 | 31111 ft | 499 kts | 4° |
| 2026-05-01 12:14 | 50.24304 | -120.21084 | 31113 ft | 499 kts | 4° |
| 2026-05-01 12:14 | 50.31202 | -120.19752 | 31110 ft | 499 kts | 4° |
| 2026-05-01 12:15 | 50.38057 | -120.18425 | 31106 ft | 499 kts | 4° |
| 2026-05-01 12:15 | 50.44953 | -120.17086 | 31108 ft | 499 kts | 4° |
| 2026-05-01 12:16 | 50.51861 | -120.15741 | 31110 ft | 500 kts | 4° |
| 2026-05-01 12:16 | 50.58770 | -120.14392 | 31114 ft | 500 kts | 4° |
| 2026-05-01 12:17 | 50.65635 | -120.13047 | 31111 ft | 500 kts | 4° |
| 2026-05-01 12:17 | 50.72590 | -120.11680 | 31113 ft | 500 kts | 4° |
| 2026-05-01 12:18 | 50.79454 | -120.10328 | 31108 ft | 501 kts | 4° |
| 2026-05-01 12:18 | 50.86364 | -120.08962 | 31110 ft | 501 kts | 4° |
| 2026-05-01 12:19 | 50.93300 | -120.07587 | 31103 ft | 501 kts | 4° |
| 2026-05-01 12:19 | 51.00223 | -120.06211 | 31101 ft | 501 kts | 4° |
| 2026-05-01 12:20 | 51.07146 | -120.04830 | 31096 ft | 501 kts | 4° |
| 2026-05-01 12:20 | 51.14080 | -120.03443 | 31103 ft | 502 kts | 4° |
| 2026-05-01 12:21 | 51.21009 | -120.02052 | 31107 ft | 502 kts | 4° |
| 2026-05-01 12:21 | 51.27948 | -120.00656 | 31109 ft | 502 kts | 4° |
| 2026-05-01 12:22 | 51.34854 | -119.99262 | 31100 ft | 503 kts | 4° |
| 2026-05-01 12:22 | 51.41803 | -119.97855 | 31110 ft | 503 kts | 4° |
| 2026-05-01 12:23 | 51.48757 | -119.96443 | 31105 ft | 504 kts | 4° |
| 2026-05-01 12:23 | 51.55721 | -119.95024 | 31106 ft | 504 kts | 4° |
| 2026-05-01 12:24 | 51.62635 | -119.93609 | 31110 ft | 504 kts | 3° |
| 2026-05-01 12:24 | 51.69596 | -119.92182 | 31115 ft | 504 kts | 3° |
| 2026-05-01 12:25 | 51.80050 | -119.90032 | 31122 ft | 508 kts | 3° |
| 2026-05-01 12:26 | 51.87114 | -119.88576 | 31127 ft | 513 kts | 3° |
| 2026-05-01 12:26 | 51.97756 | -119.86366 | 31116 ft | 514 kts | 3° |
| 2026-05-01 12:27 | 52.08404 | -119.84144 | 31119 ft | 513 kts | 3° |
| 2026-05-01 12:28 | 52.19019 | -119.81922 | 31111 ft | 512 kts | 3° |
| 2026-05-01 12:29 | 52.29607 | -119.79694 | 31121 ft | 511 kts | 3° |
| 2026-05-01 12:29 | 52.40179 | -119.77459 | 31114 ft | 510 kts | 3° |
| 2026-05-01 12:30 | 52.50711 | -119.75222 | 31122 ft | 510 kts | 3° |
| 2026-05-01 12:31 | 52.57765 | -119.73717 | 31115 ft | 511 kts | 3° |
| 2026-05-01 12:31 | 52.63635 | -119.72462 | 31121 ft | 511 kts | 3° |
| 2026-05-01 12:32 | 52.70690 | -119.70948 | 31131 ft | 512 kts | 3° |
| 2026-05-01 12:32 | 52.81308 | -119.68660 | 31129 ft | 512 kts | 3° |
| 2026-05-01 12:33 | 52.88341 | -119.67138 | 31138 ft | 513 kts | 3° |
| 2026-05-01 12:33 | 52.95426 | -119.65600 | 31132 ft | 513 kts | 3° |
| 2026-05-01 12:34 | 53.02511 | -119.64057 | 31139 ft | 513 kts | 3° |
| 2026-05-01 12:34 | 53.09602 | -119.62507 | 31142 ft | 513 kts | 3° |
| 2026-05-01 12:35 | 53.16701 | -119.60951 | 31141 ft | 514 kts | 3° |
| 2026-05-01 12:35 | 53.23756 | -119.59399 | 31138 ft | 514 kts | 3° |
| 2026-05-01 12:36 | 53.30847 | -119.57834 | 31134 ft | 514 kts | 3° |
| 2026-05-01 12:36 | 53.37939 | -119.56264 | 31138 ft | 514 kts | 3° |
| 2026-05-01 12:37 | 53.45023 | -119.54689 | 31134 ft | 514 kts | 2° |
| 2026-05-01 12:37 | 53.52111 | -119.53109 | 31140 ft | 513 kts | 2° |
| 2026-05-01 12:38 | 53.59193 | -119.51524 | 31140 ft | 513 kts | 2° |
| 2026-05-01 12:38 | 53.66230 | -119.49945 | 31127 ft | 513 kts | 2° |
| 2026-05-01 12:39 | 53.73322 | -119.48341 | 31130 ft | 513 kts | 3° |
| 2026-05-01 12:39 | 53.80391 | -119.46312 | 31136 ft | 515 kts | 6° |
| 2026-05-01 12:40 | 53.87438 | -119.44045 | 31141 ft | 517 kts | 6° |
| 2026-05-01 12:40 | 53.94525 | -119.41802 | 31138 ft | 517 kts | 5° |
| 2026-05-01 12:41 | 54.01611 | -119.39616 | 31148 ft | 518 kts | 5° |
| 2026-05-01 12:41 | 54.08723 | -119.37435 | 31144 ft | 519 kts | 5° |
| 2026-05-01 12:42 | 54.15838 | -119.35242 | 31153 ft | 520 kts | 5° |
| 2026-05-01 12:42 | 54.22921 | -119.33047 | 31142 ft | 521 kts | 5° |
| 2026-05-01 12:43 | 54.30056 | -119.30826 | 31150 ft | 521 kts | 5° |
| 2026-05-01 12:43 | 54.37186 | -119.28598 | 31138 ft | 520 kts | 5° |
| 2026-05-01 12:44 | 54.44301 | -119.26369 | 31141 ft | 519 kts | 5° |
| 2026-05-01 12:45 | 54.58449 | -119.21913 | 31136 ft | 517 kts | 5° |
| 2026-05-01 12:45 | 54.65529 | -119.19671 | 31129 ft | 516 kts | 5° |
| 2026-05-01 12:46 | 54.72616 | -119.17419 | 31128 ft | 516 kts | 5° |
| 2026-05-01 12:46 | 54.79676 | -119.15168 | 31121 ft | 516 kts | 5° |
| 2026-05-01 12:47 | 54.86736 | -119.12910 | 31116 ft | 516 kts | 5° |
| 2026-05-01 12:47 | 54.93804 | -119.10639 | 31099 ft | 517 kts | 5° |
| 2026-05-01 12:48 | 55.00842 | -119.08371 | 31084 ft | 517 kts | 5° |
| 2026-05-01 12:48 | 55.07925 | -119.06079 | 31080 ft | 518 kts | 5° |
| 2026-05-01 12:49 | 55.15008 | -119.03541 | 31066 ft | 523 kts | 10° |
| 2026-05-01 12:49 | 55.21875 | -118.99038 | 31061 ft | 532 kts | 22° |
| 2026-05-01 12:50 | 55.28433 | -118.92897 | 31074 ft | 535 kts | 24° |
| 2026-05-01 12:50 | 55.34929 | -118.86604 | 31076 ft | 536 kts | 24° |
| 2026-05-01 12:51 | 55.41474 | -118.80320 | 31075 ft | 536 kts | 24° |
| 2026-05-01 12:52 | 55.51355 | -118.70918 | 31066 ft | 537 kts | 23° |
| 2026-05-01 12:52 | 55.61201 | -118.61515 | 31063 ft | 537 kts | 23° |
| 2026-05-01 12:53 | 55.71082 | -118.52010 | 31053 ft | 537 kts | 23° |
| 2026-05-01 12:54 | 55.77648 | -118.45662 | 31052 ft | 537 kts | 23° |
| 2026-05-01 12:54 | 55.87487 | -118.36105 | 31046 ft | 537 kts | 24° |
| 2026-05-01 12:55 | 55.97286 | -118.26531 | 31048 ft | 537 kts | 24° |
| 2026-05-01 12:56 | 56.03842 | -118.20094 | 31042 ft | 537 kts | 24° |
| 2026-05-01 12:56 | 56.10386 | -118.13644 | 31041 ft | 537 kts | 24° |
| 2026-05-01 12:57 | 56.16915 | -118.07184 | 31044 ft | 536 kts | 24° |
| 2026-05-01 12:57 | 56.26709 | -117.97445 | 31021 ft | 535 kts | 24° |
| 2026-05-01 12:58 | 56.33221 | -117.90937 | 31020 ft | 534 kts | 24° |
| 2026-05-01 12:59 | 56.42954 | -117.81165 | 31023 ft | 532 kts | 24° |
| 2026-05-01 12:59 | 56.52598 | -117.71423 | 31023 ft | 530 kts | 25° |
| 2026-05-01 13:00 | 56.62244 | -117.61622 | 31026 ft | 528 kts | 25° |
| 2026-05-01 13:01 | 56.71814 | -117.51841 | 31023 ft | 524 kts | 25° |
| 2026-05-01 13:02 | 56.81320 | -117.42068 | 31014 ft | 521 kts | 25° |
| 2026-05-01 13:07 | 57.46064 | -116.73943 | 31001 ft | 502 kts | 27° |
| 2026-05-01 13:07 | 57.49091 | -116.70689 | 30994 ft | 501 kts | 27° |
| 2026-05-01 13:08 | 57.55124 | -116.64185 | 30996 ft | 500 kts | 27° |
| 2026-05-01 13:08 | 57.61142 | -116.57673 | 31000 ft | 500 kts | 27° |
| 2026-05-01 13:09 | 57.67158 | -116.51138 | 30997 ft | 499 kts | 28° |
| 2026-05-01 13:09 | 57.73118 | -116.44638 | 31001 ft | 499 kts | 28° |
| 2026-05-01 13:10 | 57.79115 | -116.38071 | 30998 ft | 499 kts | 28° |
| 2026-05-01 13:10 | 57.85119 | -116.31471 | 30998 ft | 499 kts | 28° |
| 2026-05-01 13:11 | 57.91095 | -116.24878 | 30994 ft | 498 kts | 28° |
| 2026-05-01 13:11 | 57.97081 | -116.18247 | 30989 ft | 498 kts | 28° |
| 2026-05-01 13:12 | 58.03049 | -116.11609 | 30980 ft | 498 kts | 28° |
| 2026-05-01 13:12 | 58.08982 | -116.04987 | 30979 ft | 498 kts | 28° |
| 2026-05-01 13:13 | 58.14959 | -115.98288 | 31181 ft | 501 kts | 28° |
| 2026-05-01 13:13 | 58.17964 | -115.94912 | 31469 ft | 500 kts | 28° |
| 2026-05-01 13:13 | 58.20947 | -115.91550 | 31764 ft | 500 kts | 28° |
| 2026-05-01 13:13 | 58.23936 | -115.88176 | 32037 ft | 500 kts | 28° |
| 2026-05-01 13:14 | 58.26927 | -115.84793 | 32265 ft | 501 kts | 28° |
| 2026-05-01 13:14 | 58.29923 | -115.81397 | 32504 ft | 501 kts | 28° |
| 2026-05-01 13:14 | 58.32917 | -115.77998 | 32737 ft | 502 kts | 28° |
| 2026-05-01 13:14 | 58.35920 | -115.74582 | 32876 ft | 503 kts | 28° |
| 2026-05-01 13:15 | 58.38924 | -115.71159 | 32930 ft | 504 kts | 28° |
| 2026-05-01 13:15 | 58.44947 | -115.64272 | 32966 ft | 504 kts | 28° |
| 2026-05-01 13:16 | 58.50905 | -115.57431 | 32968 ft | 502 kts | 28° |
| 2026-05-01 13:16 | 58.56882 | -115.50541 | 32965 ft | 501 kts | 28° |
| 2026-05-01 13:17 | 58.68819 | -115.36699 | 32966 ft | 501 kts | 28° |
| 2026-05-01 13:18 | 58.77775 | -115.26241 | 32966 ft | 502 kts | 28° |
| 2026-05-01 13:18 | 58.83706 | -115.19278 | 32974 ft | 503 kts | 28° |
| 2026-05-01 13:19 | 58.89664 | -115.12254 | 32966 ft | 503 kts | 28° |
| 2026-05-01 13:20 | 58.97647 | -115.02802 | 32973 ft | 504 kts | 28° |
| 2026-05-01 13:20 | 59.03488 | -114.95090 | 32973 ft | 506 kts | 34° |
| 2026-05-01 13:21 | 59.11827 | -114.82584 | 32966 ft | 507 kts | 35° |
| 2026-05-01 13:21 | 59.17413 | -114.74162 | 32960 ft | 507 kts | 34° |
| 2026-05-01 13:22 | 59.23003 | -114.65771 | 32960 ft | 506 kts | 34° |
| 2026-05-01 13:22 | 59.28587 | -114.57380 | 32956 ft | 506 kts | 34° |
| 2026-05-01 13:23 | 59.34171 | -114.48953 | 32938 ft | 506 kts | 34° |
| 2026-05-01 13:23 | 59.39743 | -114.40504 | 32956 ft | 506 kts | 34° |
| 2026-05-01 13:24 | 59.45310 | -114.32025 | 32957 ft | 506 kts | 34° |
| 2026-05-01 13:25 | 59.53613 | -114.19311 | 32948 ft | 506 kts | 34° |
| 2026-05-01 13:25 | 59.59169 | -114.10756 | 32948 ft | 506 kts | 34° |
| 2026-05-01 13:26 | 59.64718 | -114.02178 | 32944 ft | 506 kts | 35° |
| 2026-05-01 13:26 | 59.70259 | -113.93573 | 32934 ft | 506 kts | 34° |
| 2026-05-01 13:27 | 59.75799 | -113.84933 | 32939 ft | 507 kts | 35° |
| 2026-05-01 13:27 | 59.84104 | -113.71909 | 32925 ft | 507 kts | 35° |
| 2026-05-01 13:28 | 59.92368 | -113.58867 | 32917 ft | 508 kts | 35° |
| 2026-05-01 13:29 | 60.03427 | -113.41276 | 32910 ft | 508 kts | 35° |
| 2026-05-01 13:31 | 60.20007 | -113.14613 | 32890 ft | 510 kts | 35° |
| 2026-05-01 13:32 | 60.33747 | -112.92244 | 32880 ft | 511 kts | 35° |
| 2026-05-01 13:33 | 60.47330 | -112.69885 | 32860 ft | 512 kts | 35° |
| 2026-05-01 13:34 | 60.58365 | -112.51534 | 32854 ft | 513 kts | 36° |
| 2026-05-01 13:35 | 60.66653 | -112.37642 | 32844 ft | 515 kts | 36° |
| 2026-05-01 13:36 | 60.74906 | -112.23713 | 32846 ft | 516 kts | 36° |
| 2026-05-01 13:36 | 60.83192 | -112.09630 | 32835 ft | 516 kts | 36° |
| 2026-05-01 13:37 | 60.88709 | -112.00199 | 32831 ft | 517 kts | 36° |
| 2026-05-01 13:37 | 60.94222 | -111.90731 | 32830 ft | 517 kts | 36° |
| 2026-05-01 13:38 | 61.02482 | -111.76461 | 32839 ft | 516 kts | 36° |
| 2026-05-01 13:39 | 61.07984 | -111.66902 | 32822 ft | 516 kts | 36° |
| 2026-05-01 13:39 | 61.13466 | -111.57330 | 32825 ft | 516 kts | 36° |
| 2026-05-01 13:40 | 61.18955 | -111.47703 | 32818 ft | 516 kts | 36° |
| 2026-05-01 13:40 | 61.24404 | -111.38100 | 32822 ft | 516 kts | 36° |
| 2026-05-01 13:41 | 61.29875 | -111.28413 | 32811 ft | 516 kts | 36° |
| 2026-05-01 13:41 | 61.35334 | -111.18701 | 32812 ft | 516 kts | 36° |
| 2026-05-01 13:42 | 61.40795 | -111.08937 | 32812 ft | 517 kts | 37° |
| 2026-05-01 13:42 | 61.46248 | -110.99143 | 32812 ft | 517 kts | 37° |
| 2026-05-01 13:43 | 61.51700 | -110.89304 | 32806 ft | 517 kts | 37° |
| 2026-05-01 13:43 | 61.57118 | -110.79479 | 32801 ft | 518 kts | 37° |
| 2026-05-01 13:44 | 61.62594 | -110.69500 | 32804 ft | 518 kts | 37° |
| 2026-05-01 13:44 | 61.67996 | -110.59608 | 32807 ft | 518 kts | 37° |
| 2026-05-01 13:45 | 61.73443 | -110.49584 | 32800 ft | 519 kts | 37° |
| 2026-05-01 13:45 | 61.78871 | -110.39547 | 32796 ft | 519 kts | 37° |
| 2026-05-01 13:46 | 61.84300 | -110.29458 | 32798 ft | 519 kts | 37° |
| 2026-05-01 13:46 | 61.89713 | -110.19350 | 32805 ft | 518 kts | 37° |
| 2026-05-01 13:47 | 61.95090 | -110.09264 | 32786 ft | 518 kts | 38° |
| 2026-05-01 13:47 | 62.00401 | -109.98849 | 32798 ft | 521 kts | 43° |
| 2026-05-01 13:48 | 62.05029 | -109.86865 | 32802 ft | 524 kts | 49° |
| 2026-05-01 13:48 | 62.09471 | -109.74526 | 32798 ft | 524 kts | 49° |
| 2026-05-01 13:49 | 62.13914 | -109.62194 | 32798 ft | 524 kts | 49° |
| 2026-05-01 13:49 | 62.18377 | -109.49889 | 32798 ft | 524 kts | 49° |
| 2026-05-01 13:50 | 62.22822 | -109.37626 | 32804 ft | 524 kts | 49° |
| 2026-05-01 13:50 | 62.27287 | -109.25241 | 32802 ft | 524 kts | 49° |
| 2026-05-01 13:51 | 62.31730 | -109.12840 | 32803 ft | 524 kts | 50° |
| 2026-05-01 13:51 | 62.36174 | -109.00362 | 32797 ft | 525 kts | 50° |
| 2026-05-01 13:52 | 62.40608 | -108.87846 | 32799 ft | 525 kts | 50° |
| 2026-05-01 13:52 | 62.45031 | -108.75291 | 32799 ft | 525 kts | 50° |
| 2026-05-01 13:53 | 62.49412 | -108.62786 | 32803 ft | 525 kts | 50° |
| 2026-05-01 13:53 | 62.56020 | -108.43795 | 32808 ft | 526 kts | 50° |
| 2026-05-01 13:54 | 62.60408 | -108.31097 | 32807 ft | 527 kts | 51° |
| 2026-05-01 13:54 | 62.64797 | -108.18324 | 32812 ft | 527 kts | 51° |
| 2026-05-01 13:55 | 62.69173 | -108.05517 | 32815 ft | 528 kts | 51° |
| 2026-05-01 13:55 | 62.73547 | -107.92645 | 32816 ft | 528 kts | 51° |
| 2026-05-01 13:56 | 62.77910 | -107.79729 | 32821 ft | 528 kts | 51° |
| 2026-05-01 13:56 | 62.82232 | -107.66861 | 32807 ft | 528 kts | 51° |
| 2026-05-01 13:57 | 62.85873 | -107.55969 | 32834 ft | 528 kts | 51° |
| 2026-05-01 13:57 | 62.90908 | -107.40814 | 32832 ft | 528 kts | 52° |
| 2026-05-01 13:58 | 62.95223 | -107.27749 | 32825 ft | 528 kts | 52° |
| 2026-05-01 13:58 | 62.99518 | -107.14667 | 32832 ft | 527 kts | 52° |
| 2026-05-01 13:59 | 63.03797 | -107.01560 | 32842 ft | 527 kts | 52° |
| 2026-05-01 13:59 | 63.08059 | -106.88427 | 32867 ft | 526 kts | 52° |
| 2026-05-01 14:00 | 63.12304 | -106.75273 | 32854 ft | 525 kts | 52° |
| 2026-05-01 14:00 | 63.16533 | -106.62092 | 32863 ft | 525 kts | 53° |
| 2026-05-01 14:01 | 63.20752 | -106.48863 | 32874 ft | 525 kts | 53° |
| 2026-05-01 14:01 | 63.24919 | -106.35724 | 32881 ft | 524 kts | 53° |
| 2026-05-01 14:02 | 63.29103 | -106.22454 | 32886 ft | 524 kts | 53° |
| 2026-05-01 14:02 | 63.33283 | -106.09118 | 32899 ft | 524 kts | 53° |
| 2026-05-01 14:03 | 63.37444 | -105.95764 | 32905 ft | 525 kts | 53° |
| 2026-05-01 14:03 | 63.41592 | -105.82372 | 32903 ft | 525 kts | 53° |
| 2026-05-01 14:04 | 63.45732 | -105.68929 | 32912 ft | 525 kts | 54° |
| 2026-05-01 14:04 | 63.49169 | -105.57706 | 32919 ft | 525 kts | 54° |
| 2026-05-01 14:05 | 63.53957 | -105.41978 | 32926 ft | 525 kts | 54° |
| 2026-05-01 14:05 | 63.58060 | -105.28413 | 32941 ft | 525 kts | 54° |
| 2026-05-01 14:06 | 63.62156 | -105.14790 | 32943 ft | 525 kts | 54° |
| 2026-05-01 14:06 | 63.66237 | -105.01136 | 32950 ft | 525 kts | 54° |
| 2026-05-01 14:07 | 63.70301 | -104.87454 | 32957 ft | 525 kts | 54° |
| 2026-05-01 14:08 | 63.76371 | -104.66861 | 32968 ft | 525 kts | 54° |
| 2026-05-01 14:08 | 63.80374 | -104.53180 | 32970 ft | 524 kts | 54° |
| 2026-05-01 14:09 | 63.84379 | -104.39407 | 32975 ft | 524 kts | 55° |
| 2026-05-01 14:09 | 63.88377 | -104.25573 | 32983 ft | 523 kts | 55° |
| 2026-05-01 14:10 | 63.91709 | -104.13977 | 32987 ft | 523 kts | 55° |
| 2026-05-01 14:10 | 63.95671 | -104.00113 | 32990 ft | 523 kts | 55° |
| 2026-05-01 14:11 | 63.99598 | -103.86286 | 33004 ft | 522 kts | 55° |
| 2026-05-01 14:11 | 64.05491 | -103.65376 | 32995 ft | 522 kts | 55° |
| 2026-05-01 14:12 | 64.09400 | -103.51395 | 33007 ft | 521 kts | 56° |
| 2026-05-01 14:12 | 64.13293 | -103.37387 | 33012 ft | 521 kts | 56° |
| 2026-05-01 14:13 | 64.17168 | -103.23353 | 33019 ft | 520 kts | 56° |
| 2026-05-01 14:13 | 64.21019 | -103.09320 | 33031 ft | 520 kts | 56° |
| 2026-05-01 14:14 | 64.24840 | -102.95309 | 33038 ft | 520 kts | 56° |
| 2026-05-01 14:14 | 64.28666 | -102.81193 | 33045 ft | 520 kts | 56° |
| 2026-05-01 14:15 | 64.32476 | -102.67043 | 33053 ft | 519 kts | 56° |
| 2026-05-01 14:15 | 64.36269 | -102.52866 | 33060 ft | 519 kts | 56° |
| 2026-05-01 14:16 | 64.40048 | -102.38653 | 33074 ft | 519 kts | 56° |
| 2026-05-01 14:16 | 64.43818 | -102.24383 | 33078 ft | 518 kts | 56° |
| 2026-05-01 14:17 | 64.47561 | -102.10122 | 33084 ft | 518 kts | 57° |
| 2026-05-01 14:17 | 64.51295 | -101.95805 | 33098 ft | 518 kts | 57° |
| 2026-05-01 14:18 | 64.55010 | -101.81467 | 33103 ft | 517 kts | 57° |
| 2026-05-01 14:18 | 64.58084 | -101.69537 | 33108 ft | 517 kts | 57° |
| 2026-05-01 14:19 | 64.62360 | -101.52827 | 33124 ft | 516 kts | 57° |
| 2026-05-01 14:19 | 64.66027 | -101.38398 | 33130 ft | 516 kts | 57° |
| 2026-05-01 14:20 | 64.71484 | -101.16746 | 33143 ft | 515 kts | 57° |
| 2026-05-01 14:21 | 64.75104 | -101.02265 | 33155 ft | 515 kts | 57° |
| 2026-05-01 14:21 | 64.78710 | -100.87747 | 33159 ft | 515 kts | 57° |
| 2026-05-01 14:22 | 64.84086 | -100.65923 | 33176 ft | 514 kts | 57° |
| 2026-05-01 14:22 | 64.87651 | -100.51326 | 33180 ft | 514 kts | 58° |
| 2026-05-01 14:23 | 64.91174 | -100.36806 | 33185 ft | 514 kts | 58° |
| 2026-05-01 14:23 | 64.94706 | -100.22152 | 33193 ft | 514 kts | 58° |
| 2026-05-01 14:24 | 64.98223 | -100.07471 | 33196 ft | 514 kts | 58° |
| 2026-05-01 14:24 | 65.01753 | -99.92782 | 33200 ft | 513 kts | 57° |
| 2026-05-01 14:25 | 65.05390 | -99.78204 | 33208 ft | 513 kts | 56° |
| 2026-05-01 14:25 | 65.09034 | -99.63638 | 33213 ft | 513 kts | 56° |
| 2026-05-01 14:26 | 65.14441 | -99.41698 | 33211 ft | 513 kts | 57° |
| 2026-05-01 14:27 | 65.18019 | -99.27001 | 33226 ft | 513 kts | 57° |
| 2026-05-01 14:27 | 65.21558 | -99.12359 | 33231 ft | 514 kts | 57° |
| 2026-05-01 14:28 | 65.26878 | -98.90175 | 33234 ft | 514 kts | 57° |
| 2026-05-01 14:28 | 65.30415 | -98.75303 | 33240 ft | 514 kts | 57° |
| 2026-05-01 14:29 | 65.33929 | -98.60422 | 33244 ft | 514 kts | 57° |
| 2026-05-01 14:30 | 65.40926 | -98.30491 | 33257 ft | 514 kts | 57° |
| 2026-05-01 14:31 | 65.46135 | -98.07939 | 33264 ft | 514 kts | 57° |
| 2026-05-01 14:31 | 65.49588 | -97.92857 | 33268 ft | 514 kts | 58° |
| 2026-05-01 14:32 | 65.53026 | -97.77732 | 33271 ft | 514 kts | 58° |
| 2026-05-01 14:32 | 65.56447 | -97.62581 | 33276 ft | 514 kts | 58° |
| 2026-05-01 14:33 | 65.59831 | -97.47483 | 33283 ft | 514 kts | 58° |
| 2026-05-01 14:33 | 65.63221 | -97.32256 | 33285 ft | 514 kts | 58° |
| 2026-05-01 14:34 | 65.66590 | -97.17011 | 33288 ft | 515 kts | 58° |
| 2026-05-01 14:34 | 65.69951 | -97.01700 | 33292 ft | 515 kts | 58° |
| 2026-05-01 14:35 | 65.73308 | -96.86293 | 33297 ft | 515 kts | 58° |
| 2026-05-01 14:35 | 65.76645 | -96.70862 | 33301 ft | 515 kts | 58° |
| 2026-05-01 14:36 | 65.79961 | -96.55420 | 33289 ft | 515 kts | 58° |
| 2026-05-01 14:36 | 65.83266 | -96.39914 | 33294 ft | 515 kts | 58° |
| 2026-05-01 14:37 | 65.86537 | -96.24461 | 33305 ft | 515 kts | 58° |
| 2026-05-01 14:37 | 65.89807 | -96.08895 | 33313 ft | 515 kts | 59° |
| 2026-05-01 14:38 | 65.93064 | -95.93277 | 33313 ft | 515 kts | 59° |
| 2026-05-01 14:38 | 65.96315 | -95.77574 | 33320 ft | 515 kts | 59° |
| 2026-05-01 14:39 | 65.99540 | -95.61872 | 33320 ft | 515 kts | 59° |
| 2026-05-01 14:39 | 66.02717 | -95.46291 | 33324 ft | 515 kts | 59° |
| 2026-05-01 14:40 | 66.05919 | -95.30473 | 33326 ft | 515 kts | 59° |
| 2026-05-01 14:40 | 66.09098 | -95.14644 | 33333 ft | 515 kts | 59° |
| 2026-05-01 14:41 | 66.12257 | -94.98797 | 33332 ft | 515 kts | 59° |
| 2026-05-01 14:41 | 66.15403 | -94.82896 | 33338 ft | 515 kts | 59° |
| 2026-05-01 14:42 | 66.18527 | -94.66979 | 33341 ft | 515 kts | 59° |
| 2026-05-01 14:42 | 66.21637 | -94.51013 | 33350 ft | 515 kts | 59° |
| 2026-05-01 14:43 | 66.24731 | -94.35008 | 33355 ft | 514 kts | 59° |
| 2026-05-01 14:43 | 66.27812 | -94.18943 | 33356 ft | 514 kts | 60° |
| 2026-05-01 14:44 | 66.30845 | -94.03002 | 33358 ft | 514 kts | 60° |
| 2026-05-01 14:44 | 66.35407 | -93.78791 | 33363 ft | 514 kts | 60° |
| 2026-05-01 14:45 | 66.39927 | -93.54516 | 33367 ft | 514 kts | 60° |
| 2026-05-01 14:46 | 66.42917 | -93.38296 | 33366 ft | 514 kts | 60° |
| 2026-05-01 14:46 | 66.47374 | -93.13874 | 33370 ft | 514 kts | 60° |
| 2026-05-01 14:47 | 66.50322 | -92.97555 | 33369 ft | 514 kts | 61° |
| 2026-05-01 14:48 | 66.54688 | -92.73144 | 33369 ft | 513 kts | 61° |
| 2026-05-01 14:48 | 66.59031 | -92.48555 | 33378 ft | 513 kts | 61° |
| 2026-05-01 14:49 | 66.64766 | -92.15621 | 33386 ft | 513 kts | 62° |
| 2026-05-01 14:50 | 66.70418 | -91.82612 | 33389 ft | 514 kts | 62° |
| 2026-05-01 14:51 | 66.74630 | -91.57641 | 33392 ft | 514 kts | 62° |
| 2026-05-01 14:52 | 66.78801 | -91.32594 | 33395 ft | 514 kts | 63° |
| 2026-05-01 14:53 | 66.82913 | -91.07586 | 33398 ft | 515 kts | 63° |
| 2026-05-01 14:53 | 66.85646 | -90.90782 | 33396 ft | 515 kts | 63° |
| 2026-05-01 14:54 | 66.88363 | -90.73927 | 33396 ft | 515 kts | 63° |
| 2026-05-01 14:54 | 66.91064 | -90.57024 | 33401 ft | 515 kts | 63° |
| 2026-05-01 14:55 | 66.93746 | -90.40088 | 33391 ft | 515 kts | 64° |
| 2026-05-01 14:55 | 66.96409 | -90.23123 | 33405 ft | 515 kts | 64° |
| 2026-05-01 14:56 | 66.99063 | -90.06082 | 33397 ft | 516 kts | 64° |
| 2026-05-01 14:56 | 67.01424 | -89.92092 | 33404 ft | 513 kts | 60° |
| 2026-05-01 14:57 | 67.05075 | -89.73027 | 33400 ft | 513 kts | 59° |
| 2026-05-01 14:57 | 67.09302 | -89.50981 | 33400 ft | 514 kts | 59° |
| 2026-05-01 14:58 | 67.12411 | -89.34418 | 33399 ft | 515 kts | 60° |
| 2026-05-01 14:58 | 67.15467 | -89.17921 | 33401 ft | 515 kts | 60° |
| 2026-05-01 14:59 | 67.18536 | -89.01212 | 33395 ft | 515 kts | 60° |
| 2026-05-01 14:59 | 67.21581 | -88.84509 | 33397 ft | 515 kts | 60° |
| 2026-05-01 15:00 | 67.26124 | -88.59343 | 33402 ft | 515 kts | 61° |
| 2026-05-01 15:01 | 67.29111 | -88.42622 | 33389 ft | 515 kts | 61° |
| 2026-05-01 15:01 | 67.32101 | -88.25742 | 33388 ft | 515 kts | 62° |
| 2026-05-01 15:02 | 67.35077 | -88.08798 | 33369 ft | 515 kts | 62° |
| 2026-05-01 15:02 | 67.38034 | -87.91816 | 33377 ft | 515 kts | 62° |
| 2026-05-01 15:03 | 67.40970 | -87.74815 | 33381 ft | 516 kts | 62° |
| 2026-05-01 15:03 | 67.43873 | -87.57863 | 33374 ft | 516 kts | 62° |
| 2026-05-01 15:04 | 67.46779 | -87.40743 | 33378 ft | 516 kts | 63° |
| 2026-05-01 15:04 | 67.49667 | -87.23579 | 33374 ft | 516 kts | 63° |
| 2026-05-01 15:05 | 67.52534 | -87.06388 | 33376 ft | 516 kts | 63° |
| 2026-05-01 15:05 | 67.55363 | -86.89281 | 33380 ft | 516 kts | 63° |
| 2026-05-01 15:06 | 67.58201 | -86.71967 | 33379 ft | 516 kts | 63° |
| 2026-05-01 15:06 | 67.61021 | -86.54606 | 33382 ft | 516 kts | 63° |
| 2026-05-01 15:07 | 67.63811 | -86.37276 | 33393 ft | 517 kts | 64° |
| 2026-05-01 15:07 | 67.66589 | -86.19865 | 33386 ft | 517 kts | 64° |
| 2026-05-01 15:08 | 67.69355 | -86.02367 | 33389 ft | 517 kts | 64° |
| 2026-05-01 15:08 | 67.72100 | -85.84845 | 33375 ft | 518 kts | 64° |
| 2026-05-01 15:09 | 67.74812 | -85.67368 | 33401 ft | 518 kts | 64° |
| 2026-05-01 15:09 | 67.77523 | -85.49745 | 33403 ft | 518 kts | 65° |
| 2026-05-01 15:10 | 67.80217 | -85.32064 | 33389 ft | 518 kts | 65° |
| 2026-05-01 15:10 | 67.84210 | -85.05544 | 33391 ft | 518 kts | 65° |
| 2026-05-01 15:11 | 67.88171 | -84.78860 | 33391 ft | 518 kts | 65° |
| 2026-05-01 15:12 | 67.90788 | -84.61017 | 33398 ft | 518 kts | 66° |
| 2026-05-01 15:12 | 67.94683 | -84.34144 | 33381 ft | 519 kts | 66° |
| 2026-05-01 15:14 | 68.01070 | -83.89189 | 33377 ft | 520 kts | 66° |
| 2026-05-01 15:14 | 68.04853 | -83.62027 | 33379 ft | 520 kts | 67° |
| 2026-05-01 15:15 | 68.09829 | -83.25662 | 33372 ft | 522 kts | 67° |
| 2026-05-01 15:16 | 68.14734 | -82.89078 | 33361 ft | 522 kts | 68° |
| 2026-05-01 15:18 | 68.20752 | -82.43113 | 33358 ft | 523 kts | 68° |
| 2026-05-01 15:19 | 68.25491 | -82.06044 | 33344 ft | 523 kts | 69° |
| 2026-05-01 15:19 | 68.28992 | -81.78124 | 33346 ft | 523 kts | 69° |
| 2026-05-01 15:20 | 68.32429 | -81.50263 | 33343 ft | 523 kts | 70° |
| 2026-05-01 15:21 | 68.34706 | -81.31552 | 33345 ft | 523 kts | 70° |
| 2026-05-01 15:21 | 68.36958 | -81.12834 | 33343 ft | 523 kts | 70° |
| 2026-05-01 15:22 | 68.40301 | -80.84648 | 33345 ft | 523 kts | 70° |
| 2026-05-01 15:22 | 68.42489 | -80.65933 | 33342 ft | 523 kts | 71° |
| 2026-05-01 15:23 | 68.44670 | -80.47063 | 33343 ft | 523 kts | 71° |
| 2026-05-01 15:23 | 68.46835 | -80.28112 | 33337 ft | 523 kts | 71° |
| 2026-05-01 15:24 | 68.48980 | -80.09144 | 33335 ft | 524 kts | 71° |
| 2026-05-01 15:24 | 68.51224 | -79.90257 | 33319 ft | 523 kts | 69° |
| 2026-05-01 15:25 | 68.53707 | -79.71705 | 33329 ft | 523 kts | 68° |
| 2026-05-01 15:25 | 68.56231 | -79.53048 | 33322 ft | 523 kts | 68° |
| 2026-05-01 15:26 | 68.58709 | -79.34314 | 33317 ft | 524 kts | 69° |
| 2026-05-01 15:26 | 68.61153 | -79.15449 | 33322 ft | 525 kts | 69° |
| 2026-05-01 15:27 | 68.63568 | -78.96549 | 33314 ft | 525 kts | 69° |
| 2026-05-01 15:28 | 68.67145 | -78.68191 | 33310 ft | 526 kts | 70° |
| 2026-05-01 15:28 | 68.69518 | -78.49137 | 33308 ft | 527 kts | 70° |
| 2026-05-01 15:29 | 68.73032 | -78.20514 | 33306 ft | 527 kts | 70° |
| 2026-05-01 15:30 | 68.77662 | -77.82048 | 33303 ft | 528 kts | 71° |
| 2026-05-01 15:31 | 68.84425 | -77.24197 | 33300 ft | 528 kts | 71° |
| 2026-05-01 15:32 | 68.88840 | -76.85297 | 33293 ft | 528 kts | 72° |
| 2026-05-01 15:34 | 68.95281 | -76.26785 | 33286 ft | 529 kts | 72° |